sensor_id;sensor_type;location;lat;lon;timestamp;P1;durP1;ratioP1;P2;durP2;ratioP2
42590;SDS011;28218;53.342;-6.216;2023-07-31T00:01:26;1.75;;;1.20;;
42590;SDS011;28218;53.342;-6.216;2023-07-31T00:03:56;2.63;;;1.60;;
42590;SDS011;28218;53.342;-6.216;2023-07-31T00:06:24;3.70;;;1.50;;
42590;SDS011;28218;53.342;-6.216;2023-07-31T00:08:53;4.22;;;1.30;;
42590;SDS011;28218;53.342;-6.216;2023-07-31T00:11:21;4.90;;;1.15;;
42590;SDS011;28218;53.342;-6.216;2023-07-31T00:13:49;1.92;;;0.82;;
42590;SDS011;28218;53.342;-6.216;2023-07-31T00:16:20;1.93;;;1.00;;
42590;SDS011;28218;53.342;-6.216;2023-07-31T00:18:48;3.03;;;1.40;;
42590;SDS011;28218;53.342;-6.216;2023-07-31T00:21:18;2.85;;;1.00;;
42590;SDS011;28218;53.342;-6.216;2023-07-31T00:23:46;2.72;;;1.95;;
42590;SDS011;28218;53.342;-6.216;2023-07-31T00:26:15;2.63;;;1.30;;
42590;SDS011;28218;53.342;-6.216;2023-07-31T00:28:43;2.60;;;1.10;;
42590;SDS011;28218;53.342;-6.216;2023-07-31T00:31:12;2.65;;;1.42;;
42590;SDS011;28218;53.342;-6.216;2023-07-31T00:33:40;3.72;;;1.42;;
42590;SDS011;28218;53.342;-6.216;2023-07-31T00:36:08;4.40;;;1.60;;
42590;SDS011;28218;53.342;-6.216;2023-07-31T00:38:38;1.85;;;1.05;;
42590;SDS011;28218;53.342;-6.216;2023-07-31T00:41:06;2.90;;;1.10;;
42590;SDS011;28218;53.342;-6.216;2023-07-31T00:43:34;2.13;;;0.98;;
42590;SDS011;28218;53.342;-6.216;2023-07-31T00:46:03;3.65;;;1.30;;
42590;SDS011;28218;53.342;-6.216;2023-07-31T00:48:31;5.10;;;1.27;;
42590;SDS011;28218;53.342;-6.216;2023-07-31T00:51:00;1.10;;;0.95;;
42590;SDS011;28218;53.342;-6.216;2023-07-31T00:53:28;2.00;;;1.00;;
42590;SDS011;28218;53.342;-6.216;2023-07-31T00:55:58;2.15;;;1.10;;
42590;SDS011;28218;53.342;-6.216;2023-07-31T00:58:27;2.83;;;1.20;;
42590;SDS011;28218;53.342;-6.216;2023-07-31T01:00:55;2.22;;;0.90;;
42590;SDS011;28218;53.342;-6.216;2023-07-31T01:03:23;1.90;;;0.90;;
42590;SDS011;28218;53.342;-6.216;2023-07-31T01:05:55;2.35;;;1.20;;
42590;SDS011;28218;53.342;-6.216;2023-07-31T01:08:37;1.80;;;1.10;;
42590;SDS011;28218;53.342;-6.216;2023-07-31T01:11:14;4.85;;;0.93;;
42590;SDS011;28218;53.342;-6.216;2023-07-31T01:13:45;1.50;;;1.20;;
42590;SDS011;28218;53.342;-6.216;2023-07-31T01:16:13;2.78;;;1.05;;
42590;SDS011;28218;53.342;-6.216;2023-07-31T01:18:42;0.85;;;0.65;;
42590;SDS011;28218;53.342;-6.216;2023-07-31T01:21:16;2.67;;;1.00;;
42590;SDS011;28218;53.342;-6.216;2023-07-31T01:24:08;2.85;;;1.30;;
42590;SDS011;28218;53.342;-6.216;2023-07-31T01:26:55;0.77;;;0.75;;
42590;SDS011;28218;53.342;-6.216;2023-07-31T01:29:33;2.28;;;1.00;;
42590;SDS011;28218;53.342;-6.216;2023-07-31T01:32:06;0.73;;;0.70;;
42590;SDS011;28218;53.342;-6.216;2023-07-31T01:34:37;1.05;;;0.80;;
42590;SDS011;28218;53.342;-6.216;2023-07-31T01:37:06;0.80;;;0.75;;
42590;SDS011;28218;53.342;-6.216;2023-07-31T01:39:34;0.60;;;0.60;;
42590;SDS011;28218;53.342;-6.216;2023-07-31T01:42:04;1.67;;;0.70;;
42590;SDS011;28218;53.342;-6.216;2023-07-31T01:44:32;2.13;;;0.70;;
42590;SDS011;28218;53.342;-6.216;2023-07-31T01:47:00;0.93;;;0.70;;
42590;SDS011;28218;53.342;-6.216;2023-07-31T01:49:29;0.73;;;0.70;;
42590;SDS011;28218;53.342;-6.216;2023-07-31T01:51:57;1.48;;;0.75;;
42590;SDS011;28218;53.342;-6.216;2023-07-31T01:54:25;0.93;;;0.80;;
42590;SDS011;28218;53.342;-6.216;2023-07-31T01:56:53;1.95;;;1.02;;
42590;SDS011;28218;53.342;-6.216;2023-07-31T01:59:23;1.08;;;0.98;;
42590;SDS011;28218;53.342;-6.216;2023-07-31T02:01:51;1.88;;;0.85;;
42590;SDS011;28218;53.342;-6.216;2023-07-31T02:04:20;4.35;;;1.65;;
42590;SDS011;28218;53.342;-6.216;2023-07-31T02:06:48;2.10;;;1.48;;
42590;SDS011;28218;53.342;-6.216;2023-07-31T02:09:16;5.53;;;2.50;;
42590;SDS011;28218;53.342;-6.216;2023-07-31T02:11:44;4.35;;;1.42;;
42590;SDS011;28218;53.342;-6.216;2023-07-31T02:14:13;2.42;;;1.67;;
42590;SDS011;28218;53.342;-6.216;2023-07-31T02:16:42;3.22;;;1.77;;
42590;SDS011;28218;53.342;-6.216;2023-07-31T02:19:10;1.35;;;1.05;;
42590;SDS011;28218;53.342;-6.216;2023-07-31T02:21:39;2.58;;;1.00;;
42590;SDS011;28218;53.342;-6.216;2023-07-31T02:24:07;1.33;;;0.85;;
42590;SDS011;28218;53.342;-6.216;2023-07-31T02:26:35;2.45;;;1.17;;
42590;SDS011;28218;53.342;-6.216;2023-07-31T02:29:04;1.02;;;0.93;;
42590;SDS011;28218;53.342;-6.216;2023-07-31T02:31:32;0.85;;;0.80;;
42590;SDS011;28218;53.342;-6.216;2023-07-31T02:34:02;1.40;;;0.80;;
42590;SDS011;28218;53.342;-6.216;2023-07-31T02:36:30;5.28;;;1.00;;
42590;SDS011;28218;53.342;-6.216;2023-07-31T02:38:58;2.17;;;0.95;;
42590;SDS011;28218;53.342;-6.216;2023-07-31T02:41:27;2.00;;;0.80;;
42590;SDS011;28218;53.342;-6.216;2023-07-31T02:43:55;2.22;;;0.88;;
42590;SDS011;28218;53.342;-6.216;2023-07-31T02:46:23;2.17;;;0.50;;
42590;SDS011;28218;53.342;-6.216;2023-07-31T02:48:51;2.17;;;0.60;;
42590;SDS011;28218;53.342;-6.216;2023-07-31T02:51:21;2.45;;;0.80;;
42590;SDS011;28218;53.342;-6.216;2023-07-31T02:53:49;1.65;;;0.60;;
42590;SDS011;28218;53.342;-6.216;2023-07-31T02:56:18;3.00;;;0.70;;
42590;SDS011;28218;53.342;-6.216;2023-07-31T02:58:46;1.13;;;1.13;;
42590;SDS011;28218;53.342;-6.216;2023-07-31T03:01:14;1.08;;;0.45;;
42590;SDS011;28218;53.342;-6.216;2023-07-31T03:03:43;4.53;;;0.60;;
42590;SDS011;28218;53.342;-6.216;2023-07-31T03:06:11;1.20;;;0.57;;
42590;SDS011;28218;53.342;-6.216;2023-07-31T03:08:41;1.98;;;0.68;;
42590;SDS011;28218;53.342;-6.216;2023-07-31T03:11:09;0.60;;;0.60;;
42590;SDS011;28218;53.342;-6.216;2023-07-31T03:13:37;1.77;;;0.60;;
42590;SDS011;28218;53.342;-6.216;2023-07-31T03:16:06;0.63;;;0.63;;
42590;SDS011;28218;53.342;-6.216;2023-07-31T03:18:34;0.40;;;0.28;;
42590;SDS011;28218;53.342;-6.216;2023-07-31T03:21:02;1.30;;;0.50;;
42590;SDS011;28218;53.342;-6.216;2023-07-31T03:23:32;1.85;;;0.38;;
42590;SDS011;28218;53.342;-6.216;2023-07-31T03:26:02;0.35;;;0.35;;
42590;SDS011;28218;53.342;-6.216;2023-07-31T03:28:33;0.77;;;0.40;;
42590;SDS011;28218;53.342;-6.216;2023-07-31T03:31:01;1.63;;;0.47;;
42590;SDS011;28218;53.342;-6.216;2023-07-31T03:33:30;0.32;;;0.32;;
42590;SDS011;28218;53.342;-6.216;2023-07-31T03:35:58;0.47;;;0.47;;
42590;SDS011;28218;53.342;-6.216;2023-07-31T03:38:26;1.20;;;0.40;;
42590;SDS011;28218;53.342;-6.216;2023-07-31T03:40:54;0.40;;;0.25;;
42590;SDS011;28218;53.342;-6.216;2023-07-31T03:43:24;0.38;;;0.38;;
42590;SDS011;28218;53.342;-6.216;2023-07-31T03:45:52;2.63;;;0.68;;
42590;SDS011;28218;53.342;-6.216;2023-07-31T03:48:20;4.18;;;0.60;;
42590;SDS011;28218;53.342;-6.216;2023-07-31T03:50:49;0.88;;;0.63;;
42590;SDS011;28218;53.342;-6.216;2023-07-31T03:53:17;0.65;;;0.65;;
42590;SDS011;28218;53.342;-6.216;2023-07-31T03:55:45;0.98;;;0.70;;
42590;SDS011;28218;53.342;-6.216;2023-07-31T03:58:13;3.85;;;0.57;;
42590;SDS011;28218;53.342;-6.216;2023-07-31T04:00:43;1.38;;;0.60;;
42590;SDS011;28218;53.342;-6.216;2023-07-31T04:03:11;2.72;;;0.55;;
42590;SDS011;28218;53.342;-6.216;2023-07-31T04:05:39;0.52;;;0.40;;
42590;SDS011;28218;53.342;-6.216;2023-07-31T04:08:08;1.67;;;0.70;;
42590;SDS011;28218;53.342;-6.216;2023-07-31T04:10:36;0.47;;;0.43;;
42590;SDS011;28218;53.342;-6.216;2023-07-31T04:13:04;2.30;;;1.02;;
42590;SDS011;28218;53.342;-6.216;2023-07-31T04:15:32;1.23;;;0.60;;
42590;SDS011;28218;53.342;-6.216;2023-07-31T04:18:02;1.85;;;0.57;;
42590;SDS011;28218;53.342;-6.216;2023-07-31T04:20:30;0.82;;;0.50;;
42590;SDS011;28218;53.342;-6.216;2023-07-31T04:22:58;1.13;;;0.57;;
42590;SDS011;28218;53.342;-6.216;2023-07-31T04:25:27;0.90;;;0.45;;
42590;SDS011;28218;53.342;-6.216;2023-07-31T04:27:55;0.22;;;0.22;;
42590;SDS011;28218;53.342;-6.216;2023-07-31T04:30:24;2.33;;;0.60;;
42590;SDS011;28218;53.342;-6.216;2023-07-31T04:32:52;0.73;;;0.50;;
42590;SDS011;28218;53.342;-6.216;2023-07-31T04:35:21;0.50;;;0.50;;
42590;SDS011;28218;53.342;-6.216;2023-07-31T04:37:50;0.40;;;0.40;;
42590;SDS011;28218;53.342;-6.216;2023-07-31T04:40:18;3.30;;;0.80;;
42590;SDS011;28218;53.342;-6.216;2023-07-31T04:42:46;1.48;;;0.50;;
42590;SDS011;28218;53.342;-6.216;2023-07-31T04:45:14;0.70;;;0.70;;
42590;SDS011;28218;53.342;-6.216;2023-07-31T04:47:43;0.40;;;0.30;;
42590;SDS011;28218;53.342;-6.216;2023-07-31T04:50:11;0.50;;;0.50;;
42590;SDS011;28218;53.342;-6.216;2023-07-31T04:52:41;3.03;;;0.85;;
42590;SDS011;28218;53.342;-6.216;2023-07-31T04:55:09;1.65;;;0.63;;
42590;SDS011;28218;53.342;-6.216;2023-07-31T04:57:37;0.60;;;0.60;;
42590;SDS011;28218;53.342;-6.216;2023-07-31T05:00:06;0.50;;;0.50;;
42590;SDS011;28218;53.342;-6.216;2023-07-31T05:02:35;1.00;;;0.57;;
42590;SDS011;28218;53.342;-6.216;2023-07-31T05:05:03;0.65;;;0.30;;
42590;SDS011;28218;53.342;-6.216;2023-07-31T05:07:32;0.43;;;0.40;;
42590;SDS011;28218;53.342;-6.216;2023-07-31T05:10:01;0.88;;;0.30;;
42590;SDS011;28218;53.342;-6.216;2023-07-31T05:12:30;0.47;;;0.47;;
42590;SDS011;28218;53.342;-6.216;2023-07-31T05:14:58;0.40;;;0.38;;
42590;SDS011;28218;53.342;-6.216;2023-07-31T05:17:26;0.60;;;0.50;;
42590;SDS011;28218;53.342;-6.216;2023-07-31T05:19:54;1.40;;;0.40;;
42590;SDS011;28218;53.342;-6.216;2023-07-31T05:22:22;0.60;;;0.60;;
42590;SDS011;28218;53.342;-6.216;2023-07-31T05:24:51;4.45;;;0.98;;
42590;SDS011;28218;53.342;-6.216;2023-07-31T05:27:22;4.05;;;0.80;;
42590;SDS011;28218;53.342;-6.216;2023-07-31T05:29:50;1.55;;;1.08;;
42590;SDS011;28218;53.342;-6.216;2023-07-31T05:32:18;1.05;;;0.57;;
42590;SDS011;28218;53.342;-6.216;2023-07-31T05:34:46;2.08;;;0.80;;
42590;SDS011;28218;53.342;-6.216;2023-07-31T05:37:15;1.20;;;0.80;;
42590;SDS011;28218;53.342;-6.216;2023-07-31T05:39:43;2.03;;;0.90;;
42590;SDS011;28218;53.342;-6.216;2023-07-31T05:42:11;0.88;;;0.88;;
42590;SDS011;28218;53.342;-6.216;2023-07-31T05:44:41;2.83;;;1.00;;
42590;SDS011;28218;53.342;-6.216;2023-07-31T05:47:10;3.85;;;1.13;;
42590;SDS011;28218;53.342;-6.216;2023-07-31T05:49:38;4.63;;;1.00;;
42590;SDS011;28218;53.342;-6.216;2023-07-31T05:52:06;4.95;;;1.13;;
42590;SDS011;28218;53.342;-6.216;2023-07-31T05:54:35;1.50;;;1.17;;
42590;SDS011;28218;53.342;-6.216;2023-07-31T05:57:03;2.55;;;1.42;;
42590;SDS011;28218;53.342;-6.216;2023-07-31T05:59:32;3.42;;;1.48;;
42590;SDS011;28218;53.342;-6.216;2023-07-31T06:02:01;3.20;;;1.55;;
42590;SDS011;28218;53.342;-6.216;2023-07-31T06:04:30;2.88;;;1.20;;
42590;SDS011;28218;53.342;-6.216;2023-07-31T06:06:58;5.63;;;1.13;;
42590;SDS011;28218;53.342;-6.216;2023-07-31T06:09:27;2.97;;;1.20;;
42590;SDS011;28218;53.342;-6.216;2023-07-31T06:11:55;3.03;;;1.38;;
42590;SDS011;28218;53.342;-6.216;2023-07-31T06:14:23;3.80;;;1.60;;
42590;SDS011;28218;53.342;-6.216;2023-07-31T06:16:51;5.03;;;2.08;;
42590;SDS011;28218;53.342;-6.216;2023-07-31T06:19:21;4.50;;;1.85;;
42590;SDS011;28218;53.342;-6.216;2023-07-31T06:21:49;3.70;;;1.52;;
42590;SDS011;28218;53.342;-6.216;2023-07-31T06:24:17;5.20;;;1.50;;
42590;SDS011;28218;53.342;-6.216;2023-07-31T06:26:47;2.58;;;1.73;;
42590;SDS011;28218;53.342;-6.216;2023-07-31T06:29:15;3.35;;;1.63;;
42590;SDS011;28218;53.342;-6.216;2023-07-31T06:31:43;7.15;;;2.10;;
42590;SDS011;28218;53.342;-6.216;2023-07-31T06:34:12;3.70;;;1.70;;
42590;SDS011;28218;53.342;-6.216;2023-07-31T06:36:41;6.88;;;2.10;;
42590;SDS011;28218;53.342;-6.216;2023-07-31T06:39:09;4.53;;;1.50;;
42590;SDS011;28218;53.342;-6.216;2023-07-31T06:41:38;12.55;;;2.28;;
42590;SDS011;28218;53.342;-6.216;2023-07-31T06:44:06;6.40;;;2.53;;
42590;SDS011;28218;53.342;-6.216;2023-07-31T06:46:34;7.80;;;2.30;;
42590;SDS011;28218;53.342;-6.216;2023-07-31T06:49:03;3.25;;;1.90;;
42590;SDS011;28218;53.342;-6.216;2023-07-31T06:51:31;4.97;;;1.95;;
42590;SDS011;28218;53.342;-6.216;2023-07-31T06:54:01;8.05;;;2.25;;
42590;SDS011;28218;53.342;-6.216;2023-07-31T06:56:29;6.25;;;2.00;;
42590;SDS011;28218;53.342;-6.216;2023-07-31T06:58:57;7.43;;;2.22;;
42590;SDS011;28218;53.342;-6.216;2023-07-31T07:01:26;5.72;;;2.15;;
42590;SDS011;28218;53.342;-6.216;2023-07-31T07:03:55;8.52;;;2.75;;
42590;SDS011;28218;53.342;-6.216;2023-07-31T07:06:23;10.82;;;3.20;;
42590;SDS011;28218;53.342;-6.216;2023-07-31T07:08:51;6.93;;;2.40;;
42590;SDS011;28218;53.342;-6.216;2023-07-31T07:11:21;9.38;;;2.10;;
42590;SDS011;28218;53.342;-6.216;2023-07-31T07:13:49;4.80;;;1.65;;
42590;SDS011;28218;53.342;-6.216;2023-07-31T07:16:17;9.48;;;1.77;;
42590;SDS011;28218;53.342;-6.216;2023-07-31T07:18:46;4.85;;;1.58;;
42590;SDS011;28218;53.342;-6.216;2023-07-31T07:21:29;4.40;;;2.13;;
42590;SDS011;28218;53.342;-6.216;2023-07-31T07:23:57;3.33;;;1.55;;
42590;SDS011;28218;53.342;-6.216;2023-07-31T07:26:27;12.73;;;1.52;;
42590;SDS011;28218;53.342;-6.216;2023-07-31T07:28:55;6.82;;;2.45;;
42590;SDS011;28218;53.342;-6.216;2023-07-31T07:31:27;4.97;;;1.70;;
42590;SDS011;28218;53.342;-6.216;2023-07-31T07:33:55;10.88;;;2.05;;
42590;SDS011;28218;53.342;-6.216;2023-07-31T07:36:23;7.32;;;2.33;;
42590;SDS011;28218;53.342;-6.216;2023-07-31T07:38:51;6.45;;;2.38;;
42590;SDS011;28218;53.342;-6.216;2023-07-31T07:41:20;6.30;;;2.15;;
42590;SDS011;28218;53.342;-6.216;2023-07-31T07:43:49;7.22;;;2.22;;
42590;SDS011;28218;53.342;-6.216;2023-07-31T07:46:18;6.20;;;2.05;;
42590;SDS011;28218;53.342;-6.216;2023-07-31T07:48:46;10.65;;;2.08;;
42590;SDS011;28218;53.342;-6.216;2023-07-31T07:51:15;5.25;;;1.42;;
42590;SDS011;28218;53.342;-6.216;2023-07-31T07:53:43;5.70;;;1.70;;
42590;SDS011;28218;53.342;-6.216;2023-07-31T07:56:11;4.35;;;1.88;;
42590;SDS011;28218;53.342;-6.216;2023-07-31T07:58:39;5.75;;;2.10;;
42590;SDS011;28218;53.342;-6.216;2023-07-31T08:01:09;6.68;;;2.28;;
42590;SDS011;28218;53.342;-6.216;2023-07-31T08:03:37;4.50;;;1.52;;
42590;SDS011;28218;53.342;-6.216;2023-07-31T08:06:05;8.00;;;1.90;;
42590;SDS011;28218;53.342;-6.216;2023-07-31T08:08:35;3.20;;;1.75;;
42590;SDS011;28218;53.342;-6.216;2023-07-31T08:11:04;4.15;;;2.45;;
42590;SDS011;28218;53.342;-6.216;2023-07-31T08:13:32;7.95;;;1.42;;
42590;SDS011;28218;53.342;-6.216;2023-07-31T08:16:03;5.85;;;1.52;;
42590;SDS011;28218;53.342;-6.216;2023-07-31T08:18:33;4.80;;;1.60;;
42590;SDS011;28218;53.342;-6.216;2023-07-31T08:21:03;5.57;;;2.03;;
42590;SDS011;28218;53.342;-6.216;2023-07-31T08:23:31;3.53;;;1.13;;
42590;SDS011;28218;53.342;-6.216;2023-07-31T08:25:59;4.70;;;1.30;;
42590;SDS011;28218;53.342;-6.216;2023-07-31T08:28:27;6.38;;;1.70;;
42590;SDS011;28218;53.342;-6.216;2023-07-31T08:30:56;6.07;;;1.20;;
42590;SDS011;28218;53.342;-6.216;2023-07-31T08:33:24;4.65;;;2.15;;
42590;SDS011;28218;53.342;-6.216;2023-07-31T08:35:54;6.70;;;1.65;;
42590;SDS011;28218;53.342;-6.216;2023-07-31T08:38:22;11.05;;;2.60;;
42590;SDS011;28218;53.342;-6.216;2023-07-31T08:40:52;7.35;;;2.67;;
42590;SDS011;28218;53.342;-6.216;2023-07-31T08:43:20;4.07;;;1.63;;
42590;SDS011;28218;53.342;-6.216;2023-07-31T08:45:53;7.30;;;1.60;;
42590;SDS011;28218;53.342;-6.216;2023-07-31T08:48:22;5.20;;;1.83;;
42590;SDS011;28218;53.342;-6.216;2023-07-31T08:50:51;8.07;;;2.85;;
42590;SDS011;28218;53.342;-6.216;2023-07-31T08:53:21;10.20;;;2.13;;
42590;SDS011;28218;53.342;-6.216;2023-07-31T08:55:50;8.80;;;2.58;;
42590;SDS011;28218;53.342;-6.216;2023-07-31T08:58:21;10.63;;;2.10;;
42590;SDS011;28218;53.342;-6.216;2023-07-31T09:00:51;11.25;;;2.20;;
42590;SDS011;28218;53.342;-6.216;2023-07-31T09:03:21;10.48;;;2.13;;
42590;SDS011;28218;53.342;-6.216;2023-07-31T09:08:22;5.07;;;1.88;;
42590;SDS011;28218;53.342;-6.216;2023-07-31T09:10:53;12.00;;;2.08;;
42590;SDS011;28218;53.342;-6.216;2023-07-31T09:13:22;7.47;;;2.00;;
42590;SDS011;28218;53.342;-6.216;2023-07-31T09:15:50;6.68;;;1.90;;
42590;SDS011;28218;53.342;-6.216;2023-07-31T09:18:18;5.45;;;1.83;;
42590;SDS011;28218;53.342;-6.216;2023-07-31T09:21:00;8.75;;;2.03;;
42590;SDS011;28218;53.342;-6.216;2023-07-31T09:23:41;8.20;;;2.08;;
42590;SDS011;28218;53.342;-6.216;2023-07-31T09:26:10;12.50;;;2.27;;
42590;SDS011;28218;53.342;-6.216;2023-07-31T09:28:38;6.75;;;2.33;;
42590;SDS011;28218;53.342;-6.216;2023-07-31T09:31:07;10.10;;;1.90;;
42590;SDS011;28218;53.342;-6.216;2023-07-31T09:33:35;11.85;;;2.58;;
42590;SDS011;28218;53.342;-6.216;2023-07-31T09:36:23;11.13;;;3.08;;
42590;SDS011;28218;53.342;-6.216;2023-07-31T09:38:52;14.80;;;2.25;;
42590;SDS011;28218;53.342;-6.216;2023-07-31T09:41:21;15.57;;;2.55;;
42590;SDS011;28218;53.342;-6.216;2023-07-31T09:43:52;11.25;;;2.83;;
42590;SDS011;28218;53.342;-6.216;2023-07-31T09:46:21;7.50;;;2.20;;
42590;SDS011;28218;53.342;-6.216;2023-07-31T09:48:49;4.72;;;1.70;;
42590;SDS011;28218;53.342;-6.216;2023-07-31T09:51:24;9.27;;;2.15;;
42590;SDS011;28218;53.342;-6.216;2023-07-31T09:53:55;9.60;;;1.95;;
42590;SDS011;28218;53.342;-6.216;2023-07-31T09:56:23;8.55;;;1.65;;
42590;SDS011;28218;53.342;-6.216;2023-07-31T09:58:52;7.88;;;2.55;;
42590;SDS011;28218;53.342;-6.216;2023-07-31T10:01:21;9.50;;;2.05;;
42590;SDS011;28218;53.342;-6.216;2023-07-31T10:03:50;6.95;;;2.17;;
42590;SDS011;28218;53.342;-6.216;2023-07-31T10:06:18;6.43;;;1.50;;
42590;SDS011;28218;53.342;-6.216;2023-07-31T10:08:46;8.35;;;2.22;;
42590;SDS011;28218;53.342;-6.216;2023-07-31T10:11:20;9.93;;;2.30;;
42590;SDS011;28218;53.342;-6.216;2023-07-31T10:16:19;8.55;;;1.90;;
42590;SDS011;28218;53.342;-6.216;2023-07-31T10:18:48;6.35;;;2.03;;
42590;SDS011;28218;53.342;-6.216;2023-07-31T10:21:18;4.07;;;1.57;;
42590;SDS011;28218;53.342;-6.216;2023-07-31T10:23:46;4.55;;;1.70;;
42590;SDS011;28218;53.342;-6.216;2023-07-31T10:26:16;9.70;;;1.90;;
42590;SDS011;28218;53.342;-6.216;2023-07-31T10:28:48;11.27;;;1.80;;
42590;SDS011;28218;53.342;-6.216;2023-07-31T10:31:17;7.25;;;1.80;;
42590;SDS011;28218;53.342;-6.216;2023-07-31T10:33:46;6.00;;;1.90;;
42590;SDS011;28218;53.342;-6.216;2023-07-31T10:36:16;6.00;;;1.98;;
42590;SDS011;28218;53.342;-6.216;2023-07-31T10:38:45;7.65;;;1.80;;
42590;SDS011;28218;53.342;-6.216;2023-07-31T10:41:16;5.47;;;1.95;;
42590;SDS011;28218;53.342;-6.216;2023-07-31T10:43:45;5.50;;;2.17;;
42590;SDS011;28218;53.342;-6.216;2023-07-31T10:46:16;8.30;;;1.63;;
42590;SDS011;28218;53.342;-6.216;2023-07-31T10:48:44;5.30;;;1.60;;
42590;SDS011;28218;53.342;-6.216;2023-07-31T10:51:13;5.35;;;1.65;;
42590;SDS011;28218;53.342;-6.216;2023-07-31T10:53:42;3.60;;;1.65;;
42590;SDS011;28218;53.342;-6.216;2023-07-31T10:56:10;3.00;;;1.83;;
42590;SDS011;28218;53.342;-6.216;2023-07-31T10:58:40;4.35;;;1.42;;
42590;SDS011;28218;53.342;-6.216;2023-07-31T11:01:12;7.53;;;1.80;;
42590;SDS011;28218;53.342;-6.216;2023-07-31T11:03:42;5.90;;;1.60;;
42590;SDS011;28218;53.342;-6.216;2023-07-31T11:06:12;5.95;;;1.40;;
42590;SDS011;28218;53.342;-6.216;2023-07-31T11:08:45;9.23;;;1.88;;
42590;SDS011;28218;53.342;-6.216;2023-07-31T11:11:15;6.57;;;1.70;;
42590;SDS011;28218;53.342;-6.216;2023-07-31T11:13:46;4.10;;;1.90;;
42590;SDS011;28218;53.342;-6.216;2023-07-31T11:16:16;4.43;;;1.98;;
42590;SDS011;28218;53.342;-6.216;2023-07-31T11:18:47;5.03;;;1.55;;
42590;SDS011;28218;53.342;-6.216;2023-07-31T11:21:18;5.75;;;1.90;;
42590;SDS011;28218;53.342;-6.216;2023-07-31T11:23:48;6.60;;;2.75;;
42590;SDS011;28218;53.342;-6.216;2023-07-31T11:26:18;5.93;;;1.70;;
42590;SDS011;28218;53.342;-6.216;2023-07-31T11:28:46;8.05;;;1.67;;
42590;SDS011;28218;53.342;-6.216;2023-07-31T11:31:15;5.72;;;1.63;;
42590;SDS011;28218;53.342;-6.216;2023-07-31T11:33:46;4.65;;;1.35;;
42590;SDS011;28218;53.342;-6.216;2023-07-31T11:36:15;6.18;;;1.63;;
42590;SDS011;28218;53.342;-6.216;2023-07-31T11:38:44;6.47;;;2.00;;
42590;SDS011;28218;53.342;-6.216;2023-07-31T11:41:14;5.50;;;1.15;;
42590;SDS011;28218;53.342;-6.216;2023-07-31T11:43:42;6.63;;;1.98;;
42590;SDS011;28218;53.342;-6.216;2023-07-31T11:46:11;7.13;;;1.80;;
42590;SDS011;28218;53.342;-6.216;2023-07-31T11:48:41;7.07;;;2.22;;
42590;SDS011;28218;53.342;-6.216;2023-07-31T11:51:11;9.93;;;1.80;;
42590;SDS011;28218;53.342;-6.216;2023-07-31T11:53:42;4.63;;;1.83;;
42590;SDS011;28218;53.342;-6.216;2023-07-31T11:56:13;4.67;;;1.53;;
42590;SDS011;28218;53.342;-6.216;2023-07-31T11:58:44;8.43;;;2.13;;
42590;SDS011;28218;53.342;-6.216;2023-07-31T12:01:14;5.60;;;1.67;;
42590;SDS011;28218;53.342;-6.216;2023-07-31T12:03:46;6.53;;;1.80;;
42590;SDS011;28218;53.342;-6.216;2023-07-31T12:06:16;4.68;;;2.00;;
42590;SDS011;28218;53.342;-6.216;2023-07-31T12:08:44;5.68;;;1.58;;
42590;SDS011;28218;53.342;-6.216;2023-07-31T12:11:12;5.30;;;1.90;;
42590;SDS011;28218;53.342;-6.216;2023-07-31T12:13:41;2.20;;;1.30;;
42590;SDS011;28218;53.342;-6.216;2023-07-31T12:16:09;5.97;;;2.25;;
42590;SDS011;28218;53.342;-6.216;2023-07-31T12:18:38;4.75;;;1.83;;
42590;SDS011;28218;53.342;-6.216;2023-07-31T12:21:07;4.55;;;2.33;;
42590;SDS011;28218;53.342;-6.216;2023-07-31T12:23:39;2.53;;;1.63;;
42590;SDS011;28218;53.342;-6.216;2023-07-31T12:26:10;2.75;;;1.42;;
42590;SDS011;28218;53.342;-6.216;2023-07-31T12:28:40;3.30;;;2.17;;
42590;SDS011;28218;53.342;-6.216;2023-07-31T12:31:10;4.27;;;1.83;;
42590;SDS011;28218;53.342;-6.216;2023-07-31T12:33:39;4.28;;;2.50;;
42590;SDS011;28218;53.342;-6.216;2023-07-31T12:36:09;3.45;;;1.27;;
42590;SDS011;28218;53.342;-6.216;2023-07-31T12:38:40;3.60;;;1.65;;
42590;SDS011;28218;53.342;-6.216;2023-07-31T12:41:08;4.07;;;1.40;;
42590;SDS011;28218;53.342;-6.216;2023-07-31T12:43:37;2.30;;;1.40;;
42590;SDS011;28218;53.342;-6.216;2023-07-31T12:46:07;2.42;;;1.20;;
42590;SDS011;28218;53.342;-6.216;2023-07-31T12:48:36;1.48;;;0.95;;
42590;SDS011;28218;53.342;-6.216;2023-07-31T12:51:04;4.85;;;1.33;;
42590;SDS011;28218;53.342;-6.216;2023-07-31T12:53:34;6.65;;;1.23;;
42590;SDS011;28218;53.342;-6.216;2023-07-31T12:56:04;1.60;;;1.27;;
42590;SDS011;28218;53.342;-6.216;2023-07-31T12:58:32;3.70;;;1.27;;
42590;SDS011;28218;53.342;-6.216;2023-07-31T13:01:01;3.10;;;1.42;;
42590;SDS011;28218;53.342;-6.216;2023-07-31T13:03:29;4.63;;;1.60;;
42590;SDS011;28218;53.342;-6.216;2023-07-31T13:05:57;4.75;;;1.85;;
42590;SDS011;28218;53.342;-6.216;2023-07-31T13:08:26;4.63;;;1.80;;
42590;SDS011;28218;53.342;-6.216;2023-07-31T13:10:54;4.60;;;1.70;;
42590;SDS011;28218;53.342;-6.216;2023-07-31T13:13:24;5.32;;;1.85;;
42590;SDS011;28218;53.342;-6.216;2023-07-31T13:15:52;5.88;;;2.30;;
42590;SDS011;28218;53.342;-6.216;2023-07-31T13:18:20;7.38;;;1.73;;
42590;SDS011;28218;53.342;-6.216;2023-07-31T13:20:48;9.32;;;2.17;;
42590;SDS011;28218;53.342;-6.216;2023-07-31T13:23:17;3.80;;;1.42;;
42590;SDS011;28218;53.342;-6.216;2023-07-31T13:25:45;4.82;;;1.83;;
42590;SDS011;28218;53.342;-6.216;2023-07-31T13:28:14;4.32;;;1.83;;
42590;SDS011;28218;53.342;-6.216;2023-07-31T13:30:47;4.65;;;1.92;;
42590;SDS011;28218;53.342;-6.216;2023-07-31T13:33:15;6.72;;;1.80;;
42590;SDS011;28218;53.342;-6.216;2023-07-31T13:36:00;5.05;;;2.17;;
42590;SDS011;28218;53.342;-6.216;2023-07-31T13:38:28;6.10;;;1.83;;
42590;SDS011;28218;53.342;-6.216;2023-07-31T13:40:56;8.35;;;1.70;;
42590;SDS011;28218;53.342;-6.216;2023-07-31T13:43:25;3.30;;;1.13;;
42590;SDS011;28218;53.342;-6.216;2023-07-31T13:45:54;4.28;;;1.60;;
42590;SDS011;28218;53.342;-6.216;2023-07-31T13:48:23;4.30;;;1.60;;
42590;SDS011;28218;53.342;-6.216;2023-07-31T13:50:53;7.25;;;1.60;;
42590;SDS011;28218;53.342;-6.216;2023-07-31T13:53:22;3.63;;;1.65;;
42590;SDS011;28218;53.342;-6.216;2023-07-31T13:55:55;2.05;;;1.20;;
42590;SDS011;28218;53.342;-6.216;2023-07-31T13:58:27;8.38;;;2.33;;
42590;SDS011;28218;53.342;-6.216;2023-07-31T14:00:58;4.05;;;1.77;;
42590;SDS011;28218;53.342;-6.216;2023-07-31T14:03:27;5.72;;;1.65;;
42590;SDS011;28218;53.342;-6.216;2023-07-31T14:05:55;7.75;;;2.17;;
42590;SDS011;28218;53.342;-6.216;2023-07-31T14:08:23;8.27;;;1.83;;
42590;SDS011;28218;53.342;-6.216;2023-07-31T14:10:52;6.82;;;2.20;;
42590;SDS011;28218;53.342;-6.216;2023-07-31T14:13:20;4.95;;;1.55;;
42590;SDS011;28218;53.342;-6.216;2023-07-31T14:15:48;8.02;;;2.05;;
42590;SDS011;28218;53.342;-6.216;2023-07-31T14:18:17;5.53;;;1.58;;
42590;SDS011;28218;53.342;-6.216;2023-07-31T14:20:46;5.35;;;1.40;;
42590;SDS011;28218;53.342;-6.216;2023-07-31T14:23:14;3.08;;;1.30;;
42590;SDS011;28218;53.342;-6.216;2023-07-31T14:25:43;5.80;;;1.33;;
42590;SDS011;28218;53.342;-6.216;2023-07-31T14:28:11;4.15;;;1.40;;
42590;SDS011;28218;53.342;-6.216;2023-07-31T14:30:40;5.30;;;1.67;;
42590;SDS011;28218;53.342;-6.216;2023-07-31T14:33:08;5.68;;;1.70;;
42590;SDS011;28218;53.342;-6.216;2023-07-31T14:35:38;6.13;;;1.63;;
42590;SDS011;28218;53.342;-6.216;2023-07-31T14:38:06;5.40;;;1.73;;
42590;SDS011;28218;53.342;-6.216;2023-07-31T14:40:34;6.03;;;1.70;;
42590;SDS011;28218;53.342;-6.216;2023-07-31T14:43:03;4.00;;;1.15;;
42590;SDS011;28218;53.342;-6.216;2023-07-31T14:45:31;2.92;;;1.38;;
42590;SDS011;28218;53.342;-6.216;2023-07-31T14:47:59;10.00;;;1.40;;
42590;SDS011;28218;53.342;-6.216;2023-07-31T14:50:27;4.20;;;1.55;;